createdAt,value
2023-03-27T00:01:27.639Z,10.08
2023-03-27T00:03:55.825Z,10.10
2023-03-27T00:06:27.325Z,10.12
2023-03-27T00:08:55.390Z,10.14
2023-03-27T00:11:25.245Z,10.15
2023-03-27T00:13:56.136Z,10.13
2023-03-27T00:16:27.797Z,10.10
2023-03-27T00:18:56.658Z,10.07
2023-03-27T00:21:26.129Z,10.05
2023-03-27T00:23:54.703Z,10.05
2023-03-27T00:26:23.183Z,10.07
2023-03-27T00:28:51.175Z,10.08
2023-03-27T00:31:19.190Z,10.06
2023-03-27T00:33:47.083Z,10.00
2023-03-27T00:36:15.414Z,9.91
2023-03-27T00:38:44.014Z,9.82
2023-03-27T00:41:12.837Z,9.75
2023-03-27T00:43:44.127Z,9.67
2023-03-27T00:46:15.552Z,9.61
2023-03-27T00:48:48.119Z,9.59
2023-03-27T00:51:18.139Z,9.62
2023-03-27T00:53:48.436Z,9.65
2023-03-27T00:56:18.106Z,9.69
2023-03-27T00:58:54.225Z,9.73
2023-03-27T01:01:27.276Z,9.77
2023-03-27T01:03:59.933Z,9.82
2023-03-27T01:06:30.035Z,9.85
2023-03-27T01:08:58.627Z,9.86
2023-03-27T01:12:01.820Z,9.85
2023-03-27T01:14:59.749Z,9.80
2023-03-27T01:17:49.682Z,9.78
2023-03-27T01:20:43.043Z,9.78
2023-03-27T01:23:59.399Z,9.78
2023-03-27T01:27:04.412Z,9.78
2023-03-27T01:30:14.139Z,9.75
2023-03-27T01:33:04.897Z,9.74
2023-03-27T01:35:52.322Z,9.70
2023-03-27T01:38:23.642Z,9.65
2023-03-27T01:40:59.357Z,9.59
2023-03-27T01:43:58.894Z,9.52
2023-03-27T01:46:36.067Z,9.47
2023-03-27T01:49:27.418Z,9.52
2023-03-27T01:52:01.998Z,9.58
2023-03-27T01:54:34.443Z,9.63
2023-03-27T01:57:17.790Z,9.65
2023-03-27T01:59:53.287Z,9.66
2023-03-27T02:02:32.030Z,9.66
2023-03-27T02:05:15.453Z,9.69
2023-03-27T02:07:57.011Z,9.73
2023-03-27T02:10:33.157Z,9.73
2023-03-27T02:13:18.512Z,9.73
2023-03-27T02:15:49.762Z,9.69
2023-03-27T02:18:37.142Z,9.68
2023-03-27T02:21:06.297Z,9.66
2023-03-27T02:23:37.805Z,9.65
2023-03-27T02:26:06.878Z,9.66
2023-03-27T02:28:53.879Z,9.65
2023-03-27T02:31:51.851Z,9.61
2023-03-27T02:34:35.123Z,9.62
2023-03-27T02:37:21.595Z,9.65
2023-03-27T02:40:39.907Z,9.69
2023-03-27T02:43:44.833Z,9.65
2023-03-27T02:46:38.660Z,9.57
2023-03-27T02:49:12.479Z,9.49
2023-03-27T02:51:46.060Z,9.42
2023-03-27T02:54:23.197Z,9.43
2023-03-27T02:56:57.973Z,9.40
2023-03-27T02:59:39.656Z,9.38
2023-03-27T03:02:12.569Z,9.38
2023-03-27T03:04:59.781Z,9.40
2023-03-27T03:07:38.300Z,9.40
2023-03-27T03:10:11.878Z,9.41
2023-03-27T03:12:40.105Z,9.40
2023-03-27T03:15:08.976Z,9.38
2023-03-27T03:17:38.001Z,9.32
2023-03-27T03:20:07.937Z,9.26
2023-03-27T03:22:38.062Z,9.23
2023-03-27T03:25:07.069Z,9.19
2023-03-27T03:27:35.149Z,9.17
2023-03-27T03:30:17.126Z,9.16
2023-03-27T03:33:05.970Z,9.16
2023-03-27T03:35:36.069Z,9.14
2023-03-27T03:38:10.006Z,9.16
2023-03-27T03:40:45.612Z,9.17
2023-03-27T03:43:13.930Z,9.13
2023-03-27T03:45:41.844Z,9.10
2023-03-27T03:48:10.046Z,9.10
2023-03-27T03:50:38.000Z,9.12
2023-03-27T03:53:06.274Z,9.12
2023-03-27T03:55:34.271Z,9.10
2023-03-27T03:58:02.702Z,9.07
2023-03-27T04:00:34.666Z,9.04
2023-03-27T04:03:04.778Z,9.06
2023-03-27T04:05:37.387Z,9.05
2023-03-27T04:08:09.539Z,9.04
2023-03-27T04:11:07.056Z,8.98
2023-03-27T04:14:01.501Z,8.91
2023-03-27T04:16:36.806Z,8.88
2023-03-27T04:19:11.568Z,8.85
2023-03-27T04:21:39.815Z,8.80
2023-03-27T04:24:08.555Z,8.76
2023-03-27T04:26:48.224Z,8.76
2023-03-27T04:29:35.354Z,8.78
2023-03-27T04:32:05.964Z,8.81
2023-03-27T04:34:56.695Z,8.83
2023-03-27T04:37:48.861Z,8.85
2023-03-27T04:40:30.947Z,8.88
2023-03-27T04:42:58.852Z,8.90
2023-03-27T04:45:27.287Z,8.88
2023-03-27T04:47:56.005Z,8.86
2023-03-27T04:50:24.919Z,8.87
2023-03-27T04:52:58.873Z,8.86
2023-03-27T04:55:27.278Z,8.87
2023-03-27T04:57:57.628Z,8.88
2023-03-27T05:00:25.693Z,8.79
2023-03-27T05:03:14.012Z,8.81
2023-03-27T05:05:53.912Z,8.80
2023-03-27T05:08:22.186Z,8.77
2023-03-27T05:10:50.830Z,8.75
2023-03-27T05:13:18.743Z,8.76
2023-03-27T05:15:47.273Z,8.76
2023-03-27T05:18:16.197Z,8.74
2023-03-27T05:20:49.007Z,8.73
2023-03-27T05:23:17.710Z,8.75
2023-03-27T05:25:59.298Z,8.78
2023-03-27T05:28:36.694Z,8.79
2023-03-27T05:31:04.880Z,8.79
2023-03-27T05:33:40.251Z,8.81
2023-03-27T05:36:10.140Z,8.82
2023-03-27T05:38:39.792Z,8.85
2023-03-27T05:41:16.334Z,8.85
2023-03-27T05:43:47.909Z,8.84
2023-03-27T05:46:21.414Z,8.84
2023-03-27T05:49:04.814Z,8.85
2023-03-27T05:51:33.533Z,8.86
2023-03-27T05:54:01.616Z,8.85
2023-03-27T05:56:37.685Z,8.85
2023-03-27T05:59:05.717Z,8.84
2023-03-27T06:01:36.202Z,8.85
2023-03-27T06:04:04.652Z,8.86
2023-03-27T06:07:05.064Z,8.81
2023-03-27T06:09:33.105Z,8.80
2023-03-27T06:12:30.224Z,8.84
2023-03-27T06:15:09.608Z,8.87
2023-03-27T06:17:53.316Z,8.88
2023-03-27T06:20:22.970Z,8.89
2023-03-27T06:23:00.867Z,8.89
2023-03-27T06:25:34.713Z,8.90
2023-03-27T06:28:08.411Z,8.90
2023-03-27T06:30:46.262Z,8.90
2023-03-27T06:33:52.673Z,8.95
2023-03-27T06:36:41.283Z,8.90
2023-03-27T06:39:11.217Z,8.91
2023-03-27T06:41:41.527Z,8.94
2023-03-27T06:44:26.600Z,9.02
2023-03-27T06:47:07.852Z,9.08
2023-03-27T06:49:58.895Z,9.07
2023-03-27T06:52:26.925Z,9.05
2023-03-27T06:54:59.197Z,9.04
2023-03-27T06:57:27.177Z,9.03
2023-03-27T07:00:02.236Z,8.99
2023-03-27T07:02:57.834Z,8.92
2023-03-27T07:05:55.846Z,8.91
2023-03-27T07:08:26.969Z,8.91
2023-03-27T07:11:10.748Z,8.92
2023-03-27T07:13:43.207Z,8.91
2023-03-27T07:16:16.574Z,8.89
2023-03-27T07:18:44.629Z,8.88
2023-03-27T07:21:15.352Z,8.86
2023-03-27T07:23:43.425Z,8.85
2023-03-27T07:26:14.655Z,8.82
2023-03-27T07:28:55.284Z,8.81
2023-03-27T07:33:54.306Z,8.81
2023-03-27T07:36:30.034Z,8.79
2023-03-27T07:39:02.790Z,8.79
2023-03-27T07:41:51.962Z,8.78
2023-03-27T07:44:34.753Z,8.79
2023-03-27T07:47:07.036Z,8.80
2023-03-27T07:49:39.253Z,8.78
2023-03-27T07:52:11.718Z,8.70
2023-03-27T07:54:48.218Z,8.62
2023-03-27T07:57:17.026Z,8.58
2023-03-27T07:59:55.270Z,8.52
2023-03-27T08:02:46.711Z,8.45
2023-03-27T08:05:17.990Z,8.40
2023-03-27T08:07:51.435Z,8.37
2023-03-27T08:10:34.153Z,8.36
2023-03-27T08:13:02.214Z,8.32
2023-03-27T08:15:31.061Z,8.21
2023-03-27T08:18:00.027Z,8.13
2023-03-27T08:20:30.938Z,8.06
2023-03-27T08:23:00.864Z,7.98
2023-03-27T08:25:34.727Z,7.93
2023-03-27T08:28:06.295Z,7.97
2023-03-27T08:30:35.616Z,8.05
2023-03-27T08:33:03.980Z,8.11
2023-03-27T08:35:32.710Z,8.09
2023-03-27T08:38:01.324Z,8.07
2023-03-27T08:40:54.919Z,7.99
2023-03-27T08:43:41.618Z,7.96
2023-03-27T08:46:20.147Z,7.94
2023-03-27T08:48:52.363Z,7.88
2023-03-27T08:51:53.342Z,7.82
2023-03-27T08:54:34.053Z,7.70
2023-03-27T08:57:04.080Z,7.53
2023-03-27T08:59:32.099Z,7.36
2023-03-27T09:02:22.384Z,7.18
2023-03-27T09:05:02.594Z,7.01
2023-03-27T09:08:03.275Z,6.93
2023-03-27T09:10:49.205Z,6.87
2023-03-27T09:13:33.913Z,6.77
2023-03-27T09:16:12.785Z,6.71
2023-03-27T09:18:56.422Z,6.65
2023-03-27T09:21:45.083Z,6.64
2023-03-27T09:24:28.351Z,6.67
2023-03-27T09:27:26.654Z,6.63
2023-03-27T09:30:12.373Z,6.55
2023-03-27T09:32:55.932Z,6.47
2023-03-27T09:35:24.092Z,6.40
2023-03-27T09:38:01.230Z,6.34
2023-03-27T09:41:06.433Z,6.31
2023-03-27T09:43:56.512Z,6.15
2023-03-27T09:46:27.300Z,5.99
2023-03-27T09:49:12.764Z,5.91
2023-03-27T09:51:53.215Z,5.90
2023-03-27T09:54:56.310Z,5.79
2023-03-27T09:57:37.419Z,5.66
2023-03-27T10:00:25.694Z,5.55
2023-03-27T10:03:14.044Z,5.45
2023-03-27T10:05:47.187Z,5.40
2023-03-27T10:08:26.637Z,5.42
2023-03-27T10:11:28.436Z,5.34
2023-03-27T10:14:15.437Z,5.23
2023-03-27T10:16:46.203Z,5.21
2023-03-27T10:19:36.597Z,5.15
2023-03-27T10:22:32.117Z,5.10
2023-03-27T10:25:03.361Z,5.07
2023-03-27T10:27:49.927Z,5.03
2023-03-27T10:30:38.248Z,4.93
2023-03-27T10:33:29.770Z,4.83
2023-03-27T10:36:12.164Z,4.77
2023-03-27T10:38:42.327Z,4.75
2023-03-27T10:41:28.613Z,4.77
2023-03-27T10:43:58.138Z,4.81
2023-03-27T10:46:28.342Z,4.84
2023-03-27T10:49:14.646Z,4.89
2023-03-27T10:51:58.696Z,4.90
2023-03-27T10:54:44.705Z,5.01
2023-03-27T10:57:18.800Z,5.10
2023-03-27T11:00:00.726Z,5.14
2023-03-27T11:02:42.539Z,5.17
2023-03-27T11:05:18.331Z,5.15
2023-03-27T11:07:56.242Z,5.15
2023-03-27T11:10:33.285Z,5.07
2023-03-27T11:13:10.168Z,5.00
2023-03-27T11:15:46.151Z,4.98
2023-03-27T11:18:57.751Z,4.93
2023-03-27T11:21:37.076Z,4.88
2023-03-27T11:24:15.770Z,4.87
2023-03-27T11:27:02.117Z,4.89
2023-03-27T11:29:36.227Z,4.91
2023-03-27T11:32:16.186Z,4.91
2023-03-27T11:35:02.685Z,4.94
2023-03-27T11:37:55.783Z,4.98
2023-03-27T11:40:49.618Z,5.08
2023-03-27T11:43:20.196Z,5.23
2023-03-27T11:46:06.946Z,5.32
2023-03-27T11:48:45.300Z,5.37
2023-03-27T11:51:39.139Z,5.30
2023-03-27T11:54:28.953Z,5.28
2023-03-27T11:57:04.523Z,5.24
2023-03-27T12:00:07.905Z,5.20
2023-03-27T12:03:14.024Z,5.20
2023-03-27T12:05:57.411Z,5.24
2023-03-27T12:08:48.433Z,5.23
2023-03-27T12:11:19.105Z,5.26
2023-03-27T12:14:18.336Z,5.30
2023-03-27T12:17:34.930Z,5.36
2023-03-27T12:20:19.137Z,5.31
2023-03-27T12:22:58.584Z,5.23
2023-03-27T12:25:45.522Z,5.14
2023-03-27T12:28:48.155Z,5.07
2023-03-27T12:32:06.213Z,5.02
2023-03-27T12:34:59.093Z,4.99
2023-03-27T12:37:43.748Z,4.94
2023-03-27T12:40:34.969Z,4.88
2023-03-27T12:43:19.604Z,4.85
2023-03-27T12:46:25.464Z,4.79
2023-03-27T12:49:27.440Z,4.78
2023-03-27T12:52:05.708Z,4.81
2023-03-27T12:55:13.867Z,4.79
2023-03-27T12:58:02.077Z,4.74
2023-03-27T13:01:01.746Z,4.71
2023-03-27T13:04:27.384Z,4.72
2023-03-27T13:07:06.252Z,4.72
2023-03-27T13:10:09.158Z,4.71
2023-03-27T13:13:02.838Z,4.71
2023-03-27T13:15:39.660Z,4.69
2023-03-27T13:18:24.276Z,4.72
2023-03-27T13:21:16.537Z,4.72
2023-03-27T13:24:14.018Z,4.67
2023-03-27T13:27:02.774Z,4.66
2023-03-27T13:29:35.208Z,4.68
2023-03-27T13:32:37.944Z,4.72
2023-03-27T13:35:23.674Z,4.73
2023-03-27T13:37:51.925Z,4.68
2023-03-27T13:40:31.186Z,4.64
2023-03-27T13:43:17.485Z,4.56
2023-03-27T13:45:55.502Z,4.51
2023-03-27T13:49:02.659Z,4.50
2023-03-27T13:52:04.801Z,4.52
2023-03-27T13:54:58.319Z,4.54
2023-03-27T13:57:58.183Z,4.53
2023-03-27T14:00:26.705Z,4.55
2023-03-27T14:03:19.472Z,4.58
2023-03-27T14:06:09.683Z,4.62
2023-03-27T14:09:06.722Z,4.70
2023-03-27T14:11:56.526Z,4.71
2023-03-27T14:14:53.407Z,4.67
2023-03-27T14:17:30.986Z,4.64
2023-03-27T14:20:41.801Z,4.63
2023-03-27T14:23:19.351Z,4.65
2023-03-27T14:26:14.588Z,4.69
2023-03-27T14:28:49.555Z,4.68
2023-03-27T14:31:20.523Z,4.64
2023-03-27T14:34:13.546Z,4.60
2023-03-27T14:36:46.895Z,4.60
2023-03-27T14:39:21.520Z,4.60
2023-03-27T14:41:56.700Z,4.62
2023-03-27T14:44:27.005Z,4.64
2023-03-27T14:47:08.468Z,4.67
2023-03-27T14:49:45.473Z,4.66
2023-03-27T14:52:22.150Z,4.71
2023-03-27T14:55:25.820Z,4.62
2023-03-27T14:58:12.427Z,4.60
2023-03-27T15:00:41.878Z,4.64
2023-03-27T15:03:19.101Z,4.68
2023-03-27T15:05:54.388Z,4.71
2023-03-27T15:08:23.662Z,4.72
2023-03-27T15:11:12.254Z,4.74
2023-03-27T15:13:56.531Z,4.75
2023-03-27T15:16:34.466Z,4.76
2023-03-27T15:19:13.996Z,4.77
2023-03-27T15:21:46.449Z,4.83
2023-03-27T15:24:29.964Z,4.82
2023-03-27T15:27:01.392Z,4.79
2023-03-27T15:29:39.289Z,4.76
2023-03-27T15:32:14.920Z,4.72
2023-03-27T15:34:47.823Z,4.66
2023-03-27T15:37:23.443Z,4.62
2023-03-27T15:40:04.267Z,4.59
2023-03-27T15:42:47.074Z,4.60
2023-03-27T15:45:17.946Z,4.61
2023-03-27T15:48:01.205Z,4.60
2023-03-27T15:50:29.121Z,4.57
2023-03-27T15:53:03.045Z,4.58
2023-03-27T15:55:44.305Z,4.61
2023-03-27T15:58:27.552Z,4.67
2023-03-27T16:01:18.872Z,4.74
2023-03-27T16:03:50.587Z,4.81
2023-03-27T16:06:47.699Z,4.87
2023-03-27T16:09:27.188Z,4.84
2023-03-27T16:11:57.707Z,4.81
2023-03-27T16:14:53.819Z,4.83
2023-03-27T16:17:28.217Z,4.87
2023-03-27T16:19:58.968Z,4.83
2023-03-27T16:22:36.254Z,4.75
2023-03-27T16:25:08.816Z,4.64
2023-03-27T16:27:41.339Z,4.55
2023-03-27T16:30:21.022Z,4.48
2023-03-27T16:32:49.115Z,4.47
2023-03-27T16:35:17.849Z,4.44
2023-03-27T16:37:46.103Z,4.41
2023-03-27T16:40:14.886Z,4.39
2023-03-27T16:42:43.022Z,4.36
2023-03-27T16:45:11.677Z,4.36
2023-03-27T16:47:41.737Z,4.37
2023-03-27T16:50:18.798Z,4.36
2023-03-27T16:52:46.722Z,4.31
2023-03-27T16:55:14.829Z,4.23
2023-03-27T16:57:43.586Z,4.15
2023-03-27T17:00:13.274Z,4.12
2023-03-27T17:02:44.360Z,4.11
2023-03-27T17:05:14.177Z,4.10
2023-03-27T17:07:42.196Z,4.11
2023-03-27T17:10:10.533Z,4.07
2023-03-27T17:12:38.861Z,4.03
2023-03-27T17:15:07.778Z,3.99
2023-03-27T17:17:35.947Z,3.96
2023-03-27T17:20:06.297Z,3.89
2023-03-27T17:22:35.115Z,3.82
2023-03-27T17:25:05.932Z,3.76
2023-03-27T17:27:34.271Z,3.71
2023-03-27T17:30:02.365Z,3.67
2023-03-27T17:32:33.628Z,3.63
2023-03-27T17:35:08.004Z,3.59
2023-03-27T17:37:36.531Z,3.55
2023-03-27T17:40:11.054Z,3.53
2023-03-27T17:42:39.010Z,3.48
2023-03-27T17:45:07.300Z,3.43
2023-03-27T17:47:35.646Z,3.41
2023-03-27T17:50:04.185Z,3.41
2023-03-27T17:52:33.418Z,3.42
2023-03-27T17:55:01.292Z,3.40
2023-03-27T17:57:30.895Z,3.40
2023-03-27T17:59:58.998Z,3.41
2023-03-27T18:02:47.332Z,3.40
2023-03-27T18:05:15.928Z,3.40
2023-03-27T18:07:44.003Z,3.42
2023-03-27T18:10:17.162Z,3.48
2023-03-27T18:12:45.118Z,3.54
2023-03-27T18:15:14.525Z,3.57
2023-03-27T18:17:42.392Z,3.54
2023-03-27T18:20:10.568Z,3.49
2023-03-27T18:22:39.181Z,3.47
2023-03-27T18:25:09.592Z,3.45
2023-03-27T18:27:40.339Z,3.40
2023-03-27T18:30:12.333Z,3.39
2023-03-27T18:32:42.742Z,3.39
2023-03-27T18:35:14.584Z,3.40
2023-03-27T18:37:43.469Z,3.38
2023-03-27T18:40:15.272Z,3.35
2023-03-27T18:42:46.573Z,3.34
2023-03-27T18:45:17.033Z,3.33
2023-03-27T18:47:45.086Z,3.31
2023-03-27T18:50:14.850Z,3.27
2023-03-27T18:52:43.139Z,3.23
2023-03-27T18:55:13.136Z,3.23
2023-03-27T18:57:41.346Z,3.22
2023-03-27T19:00:14.462Z,3.19
2023-03-27T19:02:42.997Z,3.16
2023-03-27T19:05:11.725Z,3.14
2023-03-27T19:07:44.391Z,3.14
2023-03-27T19:10:14.160Z,3.14
2023-03-27T19:12:45.856Z,3.13
2023-03-27T19:15:34.458Z,3.12
2023-03-27T19:18:30.242Z,3.09
2023-03-27T19:21:16.424Z,3.08
2023-03-27T19:23:49.396Z,3.07
2023-03-27T19:26:39.216Z,3.04
2023-03-27T19:29:08.141Z,3.01
2023-03-27T19:31:37.098Z,2.99
2023-03-27T19:34:05.104Z,2.94
2023-03-27T19:36:33.851Z,2.89
2023-03-27T19:39:01.818Z,2.87
2023-03-27T19:41:29.880Z,2.83
2023-03-27T19:44:00.142Z,2.83
2023-03-27T19:46:29.333Z,2.81
2023-03-27T19:48:58.701Z,2.81
2023-03-27T19:51:56.488Z,2.78
2023-03-27T19:54:24.454Z,2.75
2023-03-27T19:56:52.582Z,2.74
2023-03-27T19:59:29.821Z,2.71
2023-03-27T20:01:59.765Z,2.68
2023-03-27T20:04:27.810Z,2.67
2023-03-27T20:06:59.106Z,2.69
2023-03-27T20:09:27.137Z,2.69
2023-03-27T20:11:55.188Z,2.68
2023-03-27T20:14:23.061Z,2.67
2023-03-27T20:16:51.577Z,2.67
2023-03-27T20:19:21.548Z,2.65
2023-03-27T20:21:50.375Z,2.62
2023-03-27T20:24:18.903Z,2.58
2023-03-27T20:26:54.020Z,2.53
2023-03-27T20:29:25.431Z,2.49
2023-03-27T20:31:53.383Z,2.48
2023-03-27T20:34:22.566Z,2.50
2023-03-27T20:36:55.072Z,2.50
2023-03-27T20:39:48.796Z,2.51
2023-03-27T20:42:18.743Z,2.50
2023-03-27T20:44:55.275Z,2.47
2023-03-27T20:47:23.161Z,2.42
2023-03-27T20:49:51.148Z,2.36
2023-03-27T20:52:20.031Z,2.28
2023-03-27T20:54:48.139Z,2.19
2023-03-27T20:57:17.936Z,2.13
2023-03-27T20:59:48.346Z,2.10
2023-03-27T21:02:19.251Z,2.05
2023-03-27T21:04:47.955Z,2.02
2023-03-27T21:07:16.865Z,2.02
2023-03-27T21:09:46.743Z,1.99
2023-03-27T21:12:14.654Z,1.99
2023-03-27T21:14:42.637Z,1.98
2023-03-27T21:17:12.772Z,1.96
2023-03-27T21:19:48.625Z,1.94
2023-03-27T21:22:16.647Z,1.88
2023-03-27T21:24:44.508Z,1.81
2023-03-27T21:27:12.835Z,1.74
2023-03-27T21:29:40.968Z,1.70
2023-03-27T21:32:09.430Z,1.66
2023-03-27T21:34:37.393Z,1.64
2023-03-27T21:37:05.538Z,1.61
2023-03-27T21:39:33.513Z,1.59
2023-03-27T21:42:01.441Z,1.60
2023-03-27T21:44:29.392Z,1.62
2023-03-27T21:46:57.192Z,1.64
2023-03-27T21:49:26.001Z,1.65
2023-03-27T21:51:54.030Z,1.65
2023-03-27T21:54:22.069Z,1.64
2023-03-27T21:56:50.084Z,1.62
2023-03-27T21:59:18.131Z,1.62
2023-03-27T22:01:46.058Z,1.62
2023-03-27T22:04:13.987Z,1.65
2023-03-27T22:06:41.916Z,1.69
2023-03-27T22:09:10.322Z,1.73
2023-03-27T22:11:38.718Z,1.78
2023-03-27T22:14:06.822Z,1.80
2023-03-27T22:16:35.196Z,1.81
2023-03-27T22:19:03.072Z,1.82
2023-03-27T22:21:31.253Z,1.82
2023-03-27T22:23:59.760Z,1.82
2023-03-27T22:26:31.982Z,1.80
2023-03-27T22:28:59.976Z,1.78
2023-03-27T22:31:29.461Z,1.76
2023-03-27T22:33:57.638Z,1.74
2023-03-27T22:36:25.782Z,1.73
2023-03-27T22:38:53.636Z,1.71
2023-03-27T22:41:21.503Z,1.70
2023-03-27T22:43:49.987Z,1.70
2023-03-27T22:46:21.261Z,1.69
2023-03-27T22:48:56.830Z,1.68
2023-03-27T22:51:27.304Z,1.67
2023-03-27T22:53:55.492Z,1.65
2023-03-27T22:56:23.478Z,1.62
2023-03-27T22:58:51.403Z,1.58
2023-03-27T23:01:19.356Z,1.54
2023-03-27T23:03:47.367Z,1.49
2023-03-27T23:06:16.992Z,1.47
2023-03-27T23:08:45.568Z,1.44
2023-03-27T23:11:14.357Z,1.42
2023-03-27T23:13:42.838Z,1.41
2023-03-27T23:16:11.223Z,1.38
2023-03-27T23:18:39.157Z,1.34
2023-03-27T23:21:10.218Z,1.31
2023-03-27T23:23:40.584Z,1.28
2023-03-27T23:26:10.092Z,1.26
2023-03-27T23:28:40.376Z,1.24
2023-03-27T23:31:12.591Z,1.23
2023-03-27T23:33:43.160Z,1.21
2023-03-27T23:36:23.261Z,1.19
2023-03-27T23:38:52.918Z,1.18
2023-03-27T23:41:21.827Z,1.17
2023-03-27T23:43:50.055Z,1.14
2023-03-27T23:46:18.000Z,1.11
2023-03-27T23:48:46.243Z,1.10
2023-03-27T23:51:16.341Z,1.08
2023-03-27T23:53:44.782Z,1.05
2023-03-27T23:56:12.794Z,1.03
2023-03-27T23:58:40.742Z,1.00
